sensor_id;sensor_type;location;lat;lon;timestamp;P1;durP1;ratioP1;P2;durP2;ratioP2
70138;SDS011;57507;43.056;0.150;2023-03-03T00:02:05;26.27;;;16.95;;
70138;SDS011;57507;43.056;0.150;2023-03-03T00:04:31;23.15;;;15.50;;
70138;SDS011;57507;43.056;0.150;2023-03-03T00:06:57;21.15;;;14.68;;
70138;SDS011;57507;43.056;0.150;2023-03-03T00:09:23;19.52;;;13.70;;
70138;SDS011;57507;43.056;0.150;2023-03-03T00:11:50;32.47;;;20.60;;
70138;SDS011;57507;43.056;0.150;2023-03-03T00:14:21;24.45;;;14.55;;
70138;SDS011;57507;43.056;0.150;2023-03-03T00:16:47;22.38;;;15.18;;
70138;SDS011;57507;43.056;0.150;2023-03-03T00:19:14;21.90;;;15.23;;
70138;SDS011;57507;43.056;0.150;2023-03-03T00:21:44;22.90;;;14.82;;
70138;SDS011;57507;43.056;0.150;2023-03-03T00:26:38;21.48;;;13.85;;
70138;SDS011;57507;43.056;0.150;2023-03-03T00:29:49;27.73;;;17.73;;
70138;SDS011;57507;43.056;0.150;2023-03-03T00:31:50;18.77;;;12.98;;
70138;SDS011;57507;43.056;0.150;2023-03-03T00:36:43;20.55;;;14.20;;
70138;SDS011;57507;43.056;0.150;2023-03-03T00:41:41;23.05;;;14.65;;
70138;SDS011;57507;43.056;0.150;2023-03-03T00:44:42;25.58;;;17.13;;
70138;SDS011;57507;43.056;0.150;2023-03-03T00:47:46;20.90;;;13.93;;
70138;SDS011;57507;43.056;0.150;2023-03-03T00:49:47;18.67;;;12.93;;
70138;SDS011;57507;43.056;0.150;2023-03-03T00:52:15;23.15;;;14.77;;
70138;SDS011;57507;43.056;0.150;2023-03-03T00:54:41;27.63;;;17.05;;
70138;SDS011;57507;43.056;0.150;2023-03-03T00:57:08;24.05;;;16.08;;
70138;SDS011;57507;43.056;0.150;2023-03-03T00:59:34;20.77;;;14.23;;
70138;SDS011;57507;43.056;0.150;2023-03-03T01:02:00;22.95;;;15.43;;
70138;SDS011;57507;43.056;0.150;2023-03-03T01:04:26;27.15;;;16.65;;
70138;SDS011;57507;43.056;0.150;2023-03-03T01:06:52;24.27;;;17.08;;
70138;SDS011;57507;43.056;0.150;2023-03-03T01:09:18;22.83;;;14.20;;
70138;SDS011;57507;43.056;0.150;2023-03-03T01:11:44;21.15;;;13.48;;
70138;SDS011;57507;43.056;0.150;2023-03-03T01:14:10;22.02;;;14.60;;
70138;SDS011;57507;43.056;0.150;2023-03-03T01:16:36;25.60;;;15.95;;
70138;SDS011;57507;43.056;0.150;2023-03-03T01:19:02;21.65;;;15.05;;
70138;SDS011;57507;43.056;0.150;2023-03-03T01:21:28;21.35;;;14.30;;
70138;SDS011;57507;43.056;0.150;2023-03-03T01:23:54;23.52;;;16.27;;
70138;SDS011;57507;43.056;0.150;2023-03-03T01:26:20;23.00;;;15.23;;
70138;SDS011;57507;43.056;0.150;2023-03-03T01:28:46;20.60;;;14.07;;
70138;SDS011;57507;43.056;0.150;2023-03-03T01:31:12;22.02;;;14.13;;
70138;SDS011;57507;43.056;0.150;2023-03-03T01:33:38;22.52;;;14.70;;
70138;SDS011;57507;43.056;0.150;2023-03-03T01:36:04;21.27;;;14.80;;
70138;SDS011;57507;43.056;0.150;2023-03-03T01:38:33;24.23;;;15.57;;
70138;SDS011;57507;43.056;0.150;2023-03-03T01:41:00;22.30;;;14.75;;
70138;SDS011;57507;43.056;0.150;2023-03-03T01:43:30;22.38;;;13.25;;
70138;SDS011;57507;43.056;0.150;2023-03-03T01:48:29;20.08;;;12.57;;
70138;SDS011;57507;43.056;0.150;2023-03-03T01:50:57;19.67;;;13.32;;
70138;SDS011;57507;43.056;0.150;2023-03-03T01:53:44;16.80;;;11.68;;
70138;SDS011;57507;43.056;0.150;2023-03-03T01:56:12;17.77;;;12.38;;
70138;SDS011;57507;43.056;0.150;2023-03-03T01:58:44;17.83;;;11.52;;
70138;SDS011;57507;43.056;0.150;2023-03-03T02:01:16;16.65;;;11.73;;
70138;SDS011;57507;43.056;0.150;2023-03-03T02:03:44;16.02;;;11.30;;
70138;SDS011;57507;43.056;0.150;2023-03-03T02:06:12;15.90;;;10.85;;
70138;SDS011;57507;43.056;0.150;2023-03-03T02:08:44;17.80;;;13.00;;
70138;SDS011;57507;43.056;0.150;2023-03-03T02:11:13;18.05;;;11.85;;
70138;SDS011;57507;43.056;0.150;2023-03-03T02:13:40;23.25;;;14.32;;
70138;SDS011;57507;43.056;0.150;2023-03-03T02:16:06;16.52;;;10.68;;
70138;SDS011;57507;43.056;0.150;2023-03-03T02:18:33;20.48;;;13.30;;
70138;SDS011;57507;43.056;0.150;2023-03-03T02:21:05;19.80;;;12.98;;
70138;SDS011;57507;43.056;0.150;2023-03-03T02:23:56;17.20;;;11.13;;
70138;SDS011;57507;43.056;0.150;2023-03-03T02:26:22;15.93;;;11.93;;
70138;SDS011;57507;43.056;0.150;2023-03-03T02:28:48;15.90;;;11.38;;
70138;SDS011;57507;43.056;0.150;2023-03-03T02:31:16;14.30;;;10.63;;
70138;SDS011;57507;43.056;0.150;2023-03-03T02:33:44;16.48;;;11.18;;
70138;SDS011;57507;43.056;0.150;2023-03-03T02:36:12;15.65;;;11.57;;
70138;SDS011;57507;43.056;0.150;2023-03-03T02:38:41;16.92;;;10.20;;
70138;SDS011;57507;43.056;0.150;2023-03-03T02:46:09;16.92;;;12.07;;
70138;SDS011;57507;43.056;0.150;2023-03-03T02:48:35;14.85;;;10.18;;
70138;SDS011;57507;43.056;0.150;2023-03-03T02:51:01;18.40;;;11.90;;
70138;SDS011;57507;43.056;0.150;2023-03-03T02:53:27;17.20;;;11.57;;
70138;SDS011;57507;43.056;0.150;2023-03-03T02:55:53;13.75;;;9.60;;
70138;SDS011;57507;43.056;0.150;2023-03-03T02:58:19;13.73;;;9.63;;
70138;SDS011;57507;43.056;0.150;2023-03-03T03:00:45;17.10;;;11.95;;
70138;SDS011;57507;43.056;0.150;2023-03-03T03:03:12;19.48;;;11.23;;
70138;SDS011;57507;43.056;0.150;2023-03-03T03:05:38;15.40;;;10.20;;
70138;SDS011;57507;43.056;0.150;2023-03-03T03:08:04;17.13;;;11.38;;
70138;SDS011;57507;43.056;0.150;2023-03-03T03:10:30;16.15;;;9.45;;
70138;SDS011;57507;43.056;0.150;2023-03-03T03:12:56;17.25;;;10.95;;
70138;SDS011;57507;43.056;0.150;2023-03-03T03:15:22;16.88;;;10.73;;
70138;SDS011;57507;43.056;0.150;2023-03-03T03:17:48;16.55;;;10.48;;
70138;SDS011;57507;43.056;0.150;2023-03-03T03:20:15;13.40;;;9.40;;
70138;SDS011;57507;43.056;0.150;2023-03-03T03:22:42;13.77;;;8.95;;
70138;SDS011;57507;43.056;0.150;2023-03-03T03:25:08;12.85;;;8.73;;
70138;SDS011;57507;43.056;0.150;2023-03-03T03:27:34;16.08;;;10.85;;
70138;SDS011;57507;43.056;0.150;2023-03-03T03:30:00;16.90;;;10.15;;
70138;SDS011;57507;43.056;0.150;2023-03-03T03:32:26;19.55;;;12.73;;
70138;SDS011;57507;43.056;0.150;2023-03-03T03:34:52;12.10;;;8.32;;
70138;SDS011;57507;43.056;0.150;2023-03-03T03:37:18;14.55;;;8.90;;
70138;SDS011;57507;43.056;0.150;2023-03-03T03:39:44;13.65;;;9.88;;
70138;SDS011;57507;43.056;0.150;2023-03-03T03:42:10;10.82;;;7.70;;
70138;SDS011;57507;43.056;0.150;2023-03-03T03:44:37;12.15;;;8.57;;
70138;SDS011;57507;43.056;0.150;2023-03-03T03:47:03;12.85;;;8.73;;
70138;SDS011;57507;43.056;0.150;2023-03-03T03:49:29;14.18;;;8.88;;
70138;SDS011;57507;43.056;0.150;2023-03-03T03:51:55;15.10;;;10.38;;
70138;SDS011;57507;43.056;0.150;2023-03-03T03:54:21;10.52;;;6.65;;
70138;SDS011;57507;43.056;0.150;2023-03-03T03:56:47;10.65;;;7.07;;
70138;SDS011;57507;43.056;0.150;2023-03-03T03:59:13;11.80;;;8.48;;
70138;SDS011;57507;43.056;0.150;2023-03-03T04:01:39;9.88;;;7.80;;
70138;SDS011;57507;43.056;0.150;2023-03-03T04:04:05;21.75;;;13.45;;
70138;SDS011;57507;43.056;0.150;2023-03-03T04:06:31;13.52;;;9.27;;
70138;SDS011;57507;43.056;0.150;2023-03-03T04:08:57;15.45;;;9.88;;
70138;SDS011;57507;43.056;0.150;2023-03-03T04:11:23;14.35;;;8.80;;
70138;SDS011;57507;43.056;0.150;2023-03-03T04:13:49;12.90;;;8.38;;
70138;SDS011;57507;43.056;0.150;2023-03-03T04:16:15;11.75;;;8.68;;
70138;SDS011;57507;43.056;0.150;2023-03-03T04:18:41;12.35;;;8.85;;
70138;SDS011;57507;43.056;0.150;2023-03-03T04:21:11;13.75;;;9.10;;
70138;SDS011;57507;43.056;0.150;2023-03-03T04:23:37;13.27;;;8.90;;
70138;SDS011;57507;43.056;0.150;2023-03-03T04:26:03;10.90;;;7.68;;
70138;SDS011;57507;43.056;0.150;2023-03-03T04:28:29;10.40;;;7.30;;
70138;SDS011;57507;43.056;0.150;2023-03-03T04:30:55;10.65;;;7.57;;
70138;SDS011;57507;43.056;0.150;2023-03-03T04:33:22;10.00;;;7.45;;
70138;SDS011;57507;43.056;0.150;2023-03-03T04:35:48;10.35;;;6.82;;
70138;SDS011;57507;43.056;0.150;2023-03-03T04:38:14;12.95;;;8.93;;
70138;SDS011;57507;43.056;0.150;2023-03-03T04:40:40;13.07;;;8.40;;
70138;SDS011;57507;43.056;0.150;2023-03-03T04:43:06;13.93;;;9.18;;
70138;SDS011;57507;43.056;0.150;2023-03-03T04:45:32;12.18;;;8.40;;
70138;SDS011;57507;43.056;0.150;2023-03-03T04:47:58;13.18;;;9.02;;
70138;SDS011;57507;43.056;0.150;2023-03-03T04:50:24;10.82;;;8.20;;
70138;SDS011;57507;43.056;0.150;2023-03-03T04:52:50;12.68;;;8.55;;
70138;SDS011;57507;43.056;0.150;2023-03-03T04:55:16;14.25;;;10.95;;
70138;SDS011;57507;43.056;0.150;2023-03-03T04:57:43;14.02;;;9.32;;
70138;SDS011;57507;43.056;0.150;2023-03-03T05:00:09;11.70;;;7.50;;
70138;SDS011;57507;43.056;0.150;2023-03-03T05:02:37;11.50;;;7.85;;
70138;SDS011;57507;43.056;0.150;2023-03-03T05:05:03;11.00;;;8.00;;
70138;SDS011;57507;43.056;0.150;2023-03-03T05:07:30;9.88;;;6.63;;
70138;SDS011;57507;43.056;0.150;2023-03-03T05:09:56;11.15;;;8.23;;
70138;SDS011;57507;43.056;0.150;2023-03-03T05:12:22;10.10;;;6.75;;
70138;SDS011;57507;43.056;0.150;2023-03-03T05:14:48;11.85;;;8.73;;
70138;SDS011;57507;43.056;0.150;2023-03-03T05:17:14;12.73;;;8.98;;
70138;SDS011;57507;43.056;0.150;2023-03-03T05:19:40;10.75;;;7.60;;
70138;SDS011;57507;43.056;0.150;2023-03-03T05:22:06;15.20;;;9.48;;
70138;SDS011;57507;43.056;0.150;2023-03-03T05:24:32;11.48;;;7.70;;
70138;SDS011;57507;43.056;0.150;2023-03-03T05:26:58;13.20;;;9.00;;
70138;SDS011;57507;43.056;0.150;2023-03-03T05:29:24;15.27;;;9.85;;
70138;SDS011;57507;43.056;0.150;2023-03-03T05:31:51;15.98;;;10.43;;
70138;SDS011;57507;43.056;0.150;2023-03-03T05:34:17;13.45;;;8.30;;
70138;SDS011;57507;43.056;0.150;2023-03-03T05:36:43;11.10;;;7.88;;
70138;SDS011;57507;43.056;0.150;2023-03-03T05:39:09;11.95;;;8.50;;
70138;SDS011;57507;43.056;0.150;2023-03-03T05:41:35;14.48;;;9.80;;
70138;SDS011;57507;43.056;0.150;2023-03-03T05:44:02;15.07;;;10.30;;
70138;SDS011;57507;43.056;0.150;2023-03-03T05:46:28;15.43;;;9.90;;
70138;SDS011;57507;43.056;0.150;2023-03-03T05:48:54;14.70;;;10.63;;
70138;SDS011;57507;43.056;0.150;2023-03-03T05:51:20;15.73;;;10.65;;
70138;SDS011;57507;43.056;0.150;2023-03-03T05:53:46;14.35;;;9.48;;
70138;SDS011;57507;43.056;0.150;2023-03-03T05:56:12;12.30;;;7.97;;
70138;SDS011;57507;43.056;0.150;2023-03-03T05:58:38;13.57;;;8.90;;
70138;SDS011;57507;43.056;0.150;2023-03-03T06:01:04;12.10;;;8.63;;
70138;SDS011;57507;43.056;0.150;2023-03-03T06:03:30;11.70;;;8.10;;
70138;SDS011;57507;43.056;0.150;2023-03-03T06:05:57;13.35;;;9.15;;
70138;SDS011;57507;43.056;0.150;2023-03-03T06:08:23;13.60;;;8.38;;
70138;SDS011;57507;43.056;0.150;2023-03-03T06:10:49;12.60;;;8.02;;
70138;SDS011;57507;43.056;0.150;2023-03-03T06:13:15;11.32;;;7.85;;
70138;SDS011;57507;43.056;0.150;2023-03-03T06:15:41;14.18;;;9.48;;
70138;SDS011;57507;43.056;0.150;2023-03-03T06:18:07;13.60;;;8.80;;
70138;SDS011;57507;43.056;0.150;2023-03-03T06:20:33;16.13;;;10.82;;
70138;SDS011;57507;43.056;0.150;2023-03-03T06:23:00;12.88;;;8.98;;
70138;SDS011;57507;43.056;0.150;2023-03-03T06:25:26;15.43;;;8.25;;
70138;SDS011;57507;43.056;0.150;2023-03-03T06:27:52;16.50;;;11.18;;
70138;SDS011;57507;43.056;0.150;2023-03-03T06:30:18;12.43;;;8.35;;
70138;SDS011;57507;43.056;0.150;2023-03-03T06:32:45;11.02;;;7.95;;
70138;SDS011;57507;43.056;0.150;2023-03-03T06:35:11;15.25;;;10.68;;
70138;SDS011;57507;43.056;0.150;2023-03-03T06:37:37;10.20;;;7.40;;
70138;SDS011;57507;43.056;0.150;2023-03-03T06:40:04;11.82;;;7.97;;
70138;SDS011;57507;43.056;0.150;2023-03-03T06:42:30;16.73;;;11.18;;
70138;SDS011;57507;43.056;0.150;2023-03-03T06:44:56;14.70;;;9.70;;
70138;SDS011;57507;43.056;0.150;2023-03-03T06:47:22;12.70;;;8.57;;
70138;SDS011;57507;43.056;0.150;2023-03-03T06:49:48;14.65;;;10.38;;
70138;SDS011;57507;43.056;0.150;2023-03-03T06:52:17;19.98;;;13.23;;
70138;SDS011;57507;43.056;0.150;2023-03-03T06:54:45;14.38;;;9.77;;
70138;SDS011;57507;43.056;0.150;2023-03-03T06:57:16;18.23;;;10.85;;
70138;SDS011;57507;43.056;0.150;2023-03-03T06:59:42;12.50;;;8.32;;
70138;SDS011;57507;43.056;0.150;2023-03-03T07:02:12;11.80;;;7.65;;
70138;SDS011;57507;43.056;0.150;2023-03-03T07:04:39;10.73;;;7.65;;
70138;SDS011;57507;43.056;0.150;2023-03-03T07:09:40;9.40;;;7.03;;
70138;SDS011;57507;43.056;0.150;2023-03-03T07:12:19;11.38;;;7.35;;
70138;SDS011;57507;43.056;0.150;2023-03-03T07:14:47;11.10;;;7.53;;
70138;SDS011;57507;43.056;0.150;2023-03-03T07:17:19;11.80;;;8.45;;
70138;SDS011;57507;43.056;0.150;2023-03-03T07:19:46;10.48;;;7.35;;
70138;SDS011;57507;43.056;0.150;2023-03-03T07:24:39;15.80;;;11.40;;
70138;SDS011;57507;43.056;0.150;2023-03-03T07:29:32;11.35;;;8.05;;
70138;SDS011;57507;43.056;0.150;2023-03-03T07:32:00;12.85;;;9.45;;
70138;SDS011;57507;43.056;0.150;2023-03-03T07:36:53;13.63;;;10.00;;
70138;SDS011;57507;43.056;0.150;2023-03-03T07:39:35;11.15;;;8.18;;
70138;SDS011;57507;43.056;0.150;2023-03-03T07:42:11;12.07;;;7.68;;
70138;SDS011;57507;43.056;0.150;2023-03-03T07:44:38;11.27;;;8.40;;
70138;SDS011;57507;43.056;0.150;2023-03-03T07:49:45;10.93;;;7.70;;
70138;SDS011;57507;43.056;0.150;2023-03-03T07:52:25;10.10;;;7.35;;
70138;SDS011;57507;43.056;0.150;2023-03-03T07:54:52;11.85;;;8.02;;
70138;SDS011;57507;43.056;0.150;2023-03-03T07:59:54;14.00;;;9.95;;
70138;SDS011;57507;43.056;0.150;2023-03-03T08:05:19;22.10;;;15.13;;
70138;SDS011;57507;43.056;0.150;2023-03-03T08:07:45;13.30;;;9.25;;
70138;SDS011;57507;43.056;0.150;2023-03-03T08:10:57;21.40;;;14.75;;
70138;SDS011;57507;43.056;0.150;2023-03-03T08:12:58;20.25;;;12.40;;
70138;SDS011;57507;43.056;0.150;2023-03-03T08:15:30;22.73;;;14.77;;
70138;SDS011;57507;43.056;0.150;2023-03-03T08:17:56;31.08;;;19.83;;
70138;SDS011;57507;43.056;0.150;2023-03-03T08:23:00;29.98;;;19.35;;
70138;SDS011;57507;43.056;0.150;2023-03-03T08:25:26;12.23;;;8.65;;
70138;SDS011;57507;43.056;0.150;2023-03-03T08:27:53;28.88;;;19.15;;
70138;SDS011;57507;43.056;0.150;2023-03-03T08:30:19;28.70;;;19.30;;
70138;SDS011;57507;43.056;0.150;2023-03-03T08:32:45;26.58;;;18.83;;
70138;SDS011;57507;43.056;0.150;2023-03-03T08:35:11;28.33;;;17.38;;
70138;SDS011;57507;43.056;0.150;2023-03-03T08:37:37;24.60;;;16.80;;
70138;SDS011;57507;43.056;0.150;2023-03-03T08:40:03;21.65;;;14.95;;
70138;SDS011;57507;43.056;0.150;2023-03-03T08:42:29;22.17;;;15.90;;
70138;SDS011;57507;43.056;0.150;2023-03-03T08:44:55;15.52;;;11.10;;
70138;SDS011;57507;43.056;0.150;2023-03-03T08:47:21;16.30;;;11.77;;
70138;SDS011;57507;43.056;0.150;2023-03-03T08:49:47;23.27;;;15.02;;
70138;SDS011;57507;43.056;0.150;2023-03-03T08:52:13;22.77;;;15.63;;
70138;SDS011;57507;43.056;0.150;2023-03-03T08:54:39;22.10;;;15.13;;
70138;SDS011;57507;43.056;0.150;2023-03-03T08:57:05;23.45;;;15.82;;
70138;SDS011;57507;43.056;0.150;2023-03-03T08:59:32;23.42;;;16.05;;
70138;SDS011;57507;43.056;0.150;2023-03-03T09:02:02;25.48;;;17.02;;
70138;SDS011;57507;43.056;0.150;2023-03-03T09:04:29;25.50;;;17.17;;
70138;SDS011;57507;43.056;0.150;2023-03-03T09:06:55;22.42;;;15.18;;
70138;SDS011;57507;43.056;0.150;2023-03-03T09:09:21;17.65;;;13.15;;
70138;SDS011;57507;43.056;0.150;2023-03-03T09:11:47;21.65;;;15.50;;
70138;SDS011;57507;43.056;0.150;2023-03-03T09:14:17;22.42;;;15.75;;
70138;SDS011;57507;43.056;0.150;2023-03-03T09:16:51;17.55;;;12.10;;
70138;SDS011;57507;43.056;0.150;2023-03-03T09:19:30;21.38;;;15.90;;
70138;SDS011;57507;43.056;0.150;2023-03-03T09:21:58;25.65;;;16.58;;
70138;SDS011;57507;43.056;0.150;2023-03-03T09:24:27;25.33;;;17.75;;
70138;SDS011;57507;43.056;0.150;2023-03-03T09:26:56;26.77;;;16.75;;
70138;SDS011;57507;43.056;0.150;2023-03-03T09:29:24;23.13;;;17.08;;
70138;SDS011;57507;43.056;0.150;2023-03-03T09:34:23;24.08;;;17.75;;
70138;SDS011;57507;43.056;0.150;2023-03-03T09:36:50;15.38;;;12.27;;
70138;SDS011;57507;43.056;0.150;2023-03-03T09:39:18;23.83;;;16.70;;
70138;SDS011;57507;43.056;0.150;2023-03-03T09:49:52;18.42;;;13.73;;
70138;SDS011;57507;43.056;0.150;2023-03-03T09:55:19;18.48;;;12.40;;
70138;SDS011;57507;43.056;0.150;2023-03-03T10:03:46;18.15;;;12.32;;
70138;SDS011;57507;43.056;0.150;2023-03-03T10:05:57;15.23;;;10.73;;
70138;SDS011;57507;43.056;0.150;2023-03-03T10:57:41;14.88;;;9.70;;
70138;SDS011;57507;43.056;0.150;2023-03-03T11:07:56;12.85;;;8.48;;
70138;SDS011;57507;43.056;0.150;2023-03-03T11:10:26;10.30;;;7.32;;
70138;SDS011;57507;43.056;0.150;2023-03-03T11:25:45;15.68;;;6.45;;
70138;SDS011;57507;43.056;0.150;2023-03-03T11:28:32;11.30;;;6.80;;
70138;SDS011;57507;43.056;0.150;2023-03-03T11:41:02;11.00;;;6.43;;
70138;SDS011;57507;43.056;0.150;2023-03-03T11:45:58;10.88;;;6.40;;
70138;SDS011;57507;43.056;0.150;2023-03-03T11:51:12;11.32;;;7.10;;
70138;SDS011;57507;43.056;0.150;2023-03-03T11:56:32;9.73;;;6.40;;
70138;SDS011;57507;43.056;0.150;2023-03-03T11:59:03;11.93;;;6.35;;
70138;SDS011;57507;43.056;0.150;2023-03-03T12:01:48;12.23;;;6.95;;
70138;SDS011;57507;43.056;0.150;2023-03-03T12:12:06;11.20;;;7.15;;
70138;SDS011;57507;43.056;0.150;2023-03-03T12:20:26;13.10;;;6.30;;
70138;SDS011;57507;43.056;0.150;2023-03-03T12:40:51;8.77;;;6.65;;
70138;SDS011;57507;43.056;0.150;2023-03-03T12:48:40;10.93;;;6.75;;
70138;SDS011;57507;43.056;0.150;2023-03-03T12:56:29;13.73;;;7.95;;
70138;SDS011;57507;43.056;0.150;2023-03-03T12:59:00;12.38;;;8.20;;
70138;SDS011;57507;43.056;0.150;2023-03-03T13:04:03;15.05;;;7.57;;
70138;SDS011;57507;43.056;0.150;2023-03-03T13:06:32;13.57;;;7.28;;
70138;SDS011;57507;43.056;0.150;2023-03-03T13:14:06;14.25;;;9.48;;
70138;SDS011;57507;43.056;0.150;2023-03-03T13:16:37;11.45;;;7.78;;
70138;SDS011;57507;43.056;0.150;2023-03-03T13:19:11;12.18;;;8.15;;
70138;SDS011;57507;43.056;0.150;2023-03-03T13:21:49;10.88;;;7.60;;
70138;SDS011;57507;43.056;0.150;2023-03-03T13:32:16;13.48;;;9.60;;
70138;SDS011;57507;43.056;0.150;2023-03-03T13:35:00;12.77;;;8.90;;
70138;SDS011;57507;43.056;0.150;2023-03-03T13:37:43;18.52;;;12.90;;
70138;SDS011;57507;43.056;0.150;2023-03-03T13:42:39;16.65;;;11.80;;
70138;SDS011;57507;43.056;0.150;2023-03-03T14:00:33;21.23;;;15.02;;
70138;SDS011;57507;43.056;0.150;2023-03-03T14:11:09;18.17;;;12.68;;
70138;SDS011;57507;43.056;0.150;2023-03-03T14:16:08;16.48;;;11.95;;
70138;SDS011;57507;43.056;0.150;2023-03-03T14:18:40;16.90;;;12.25;;
70138;SDS011;57507;43.056;0.150;2023-03-03T14:21:16;19.50;;;13.85;;
70138;SDS011;57507;43.056;0.150;2023-03-03T14:26:28;11.95;;;9.65;;
70138;SDS011;57507;43.056;0.150;2023-03-03T14:31:40;12.27;;;9.52;;
70138;SDS011;57507;43.056;0.150;2023-03-03T14:36:40;16.95;;;12.43;;
70138;SDS011;57507;43.056;0.150;2023-03-03T14:42:29;15.57;;;10.18;;
70138;SDS011;57507;43.056;0.150;2023-03-03T14:44:56;14.35;;;11.07;;
70138;SDS011;57507;43.056;0.150;2023-03-03T14:47:26;16.38;;;12.77;;
70138;SDS011;57507;43.056;0.150;2023-03-03T14:49:53;15.48;;;10.60;;
70138;SDS011;57507;43.056;0.150;2023-03-03T14:52:27;18.15;;;11.10;;
70138;SDS011;57507;43.056;0.150;2023-03-03T14:54:55;13.95;;;10.10;;
70138;SDS011;57507;43.056;0.150;2023-03-03T14:57:40;15.50;;;12.02;;
70138;SDS011;57507;43.056;0.150;2023-03-03T15:05:18;12.90;;;9.32;;
70138;SDS011;57507;43.056;0.150;2023-03-03T15:07:46;16.15;;;10.98;;
70138;SDS011;57507;43.056;0.150;2023-03-03T15:10:14;15.48;;;11.45;;
70138;SDS011;57507;43.056;0.150;2023-03-03T15:12:50;13.43;;;10.05;;
70138;SDS011;57507;43.056;0.150;2023-03-03T15:15:18;14.77;;;11.75;;
70138;SDS011;57507;43.056;0.150;2023-03-03T15:18:00;17.25;;;13.35;;
70138;SDS011;57507;43.056;0.150;2023-03-03T15:30:56;19.75;;;13.88;;
70138;SDS011;57507;43.056;0.150;2023-03-03T15:33:31;13.25;;;9.70;;
70138;SDS011;57507;43.056;0.150;2023-03-03T15:56:56;15.50;;;10.45;;
70138;SDS011;57507;43.056;0.150;2023-03-03T15:59:32;15.55;;;10.60;;
70138;SDS011;57507;43.056;0.150;2023-03-03T16:02:09;15.35;;;10.63;;
70138;SDS011;57507;43.056;0.150;2023-03-03T16:04:38;20.55;;;14.05;;
70138;SDS011;57507;43.056;0.150;2023-03-03T16:12:17;20.42;;;13.32;;
70138;SDS011;57507;43.056;0.150;2023-03-03T16:32:45;16.75;;;12.48;;
70138;SDS011;57507;43.056;0.150;2023-03-03T16:37:58;18.80;;;13.65;;
70138;SDS011;57507;43.056;0.150;2023-03-03T16:40:28;15.88;;;11.75;;
70138;SDS011;57507;43.056;0.150;2023-03-03T16:42:56;18.33;;;12.25;;
70138;SDS011;57507;43.056;0.150;2023-03-03T16:45:29;18.60;;;12.13;;
70138;SDS011;57507;43.056;0.150;2023-03-03T16:50:26;13.65;;;10.88;;
70138;SDS011;57507;43.056;0.150;2023-03-03T16:53:00;18.30;;;13.23;;
70138;SDS011;57507;43.056;0.150;2023-03-03T16:55:31;36.38;;;23.55;;
70138;SDS011;57507;43.056;0.150;2023-03-03T17:00:29;20.90;;;14.13;;
70138;SDS011;57507;43.056;0.150;2023-03-03T17:03:13;21.80;;;13.70;;
70138;SDS011;57507;43.056;0.150;2023-03-03T17:05:43;21.02;;;14.02;;
70138;SDS011;57507;43.056;0.150;2023-03-03T17:10:45;26.73;;;17.90;;
70138;SDS011;57507;43.056;0.150;2023-03-03T17:21:22;18.00;;;13.38;;
70138;SDS011;57507;43.056;0.150;2023-03-03T17:26:24;20.05;;;14.23;;
70138;SDS011;57507;43.056;0.150;2023-03-03T17:31:57;25.10;;;16.92;;
70138;SDS011;57507;43.056;0.150;2023-03-03T17:37:22;18.67;;;13.05;;
70138;SDS011;57507;43.056;0.150;2023-03-03T17:39:59;18.42;;;13.35;;
70138;SDS011;57507;43.056;0.150;2023-03-03T17:45:10;18.08;;;13.48;;
70138;SDS011;57507;43.056;0.150;2023-03-03T17:55:28;21.92;;;14.98;;
70138;SDS011;57507;43.056;0.150;2023-03-03T18:05:43;28.05;;;19.50;;
70138;SDS011;57507;43.056;0.150;2023-03-03T18:08:39;29.45;;;20.05;;
70138;SDS011;57507;43.056;0.150;2023-03-03T18:23:36;21.25;;;15.15;;
70138;SDS011;57507;43.056;0.150;2023-03-03T18:28:50;25.50;;;18.27;;
70138;SDS011;57507;43.056;0.150;2023-03-03T18:31:22;23.17;;;16.23;;
70138;SDS011;57507;43.056;0.150;2023-03-03T18:33:58;18.38;;;13.77;;
70138;SDS011;57507;43.056;0.150;2023-03-03T18:38:51;22.80;;;16.35;;
70138;SDS011;57507;43.056;0.150;2023-03-03T18:41:22;20.45;;;13.50;;
70138;SDS011;57507;43.056;0.150;2023-03-03T18:43:54;20.05;;;14.27;;
70138;SDS011;57507;43.056;0.150;2023-03-03T18:48:52;25.02;;;17.45;;
70138;SDS011;57507;43.056;0.150;2023-03-03T18:59:07;21.33;;;15.15;;
70138;SDS011;57507;43.056;0.150;2023-03-03T19:01:34;17.90;;;13.20;;
70138;SDS011;57507;43.056;0.150;2023-03-03T19:04:11;20.60;;;13.82;;
70138;SDS011;57507;43.056;0.150;2023-03-03T19:09:10;18.63;;;12.77;;
70138;SDS011;57507;43.056;0.150;2023-03-03T19:11:54;18.67;;;12.50;;
70138;SDS011;57507;43.056;0.150;2023-03-03T19:16:51;20.83;;;13.77;;
70138;SDS011;57507;43.056;0.150;2023-03-03T19:19:19;21.77;;;14.45;;
70138;SDS011;57507;43.056;0.150;2023-03-03T19:22:00;19.30;;;14.30;;
70138;SDS011;57507;43.056;0.150;2023-03-03T19:24:37;21.15;;;14.38;;
70138;SDS011;57507;43.056;0.150;2023-03-03T19:27:07;17.13;;;12.40;;
70138;SDS011;57507;43.056;0.150;2023-03-03T19:43:06;19.80;;;13.98;;
70138;SDS011;57507;43.056;0.150;2023-03-03T19:56:13;19.40;;;13.10;;
70138;SDS011;57507;43.056;0.150;2023-03-03T20:06:31;23.75;;;16.35;;
70138;SDS011;57507;43.056;0.150;2023-03-03T20:14:20;18.95;;;12.85;;
70138;SDS011;57507;43.056;0.150;2023-03-03T20:16:48;19.63;;;14.25;;
70138;SDS011;57507;43.056;0.150;2023-03-03T20:22:10;19.25;;;13.70;;
70138;SDS011;57507;43.056;0.150;2023-03-03T20:24:39;19.60;;;14.48;;
70138;SDS011;57507;43.056;0.150;2023-03-03T20:27:15;16.58;;;13.13;;
70138;SDS011;57507;43.056;0.150;2023-03-03T20:34:44;18.45;;;13.23;;
70138;SDS011;57507;43.056;0.150;2023-03-03T20:37:23;20.13;;;14.32;;
70138;SDS011;57507;43.056;0.150;2023-03-03T20:53:27;15.80;;;11.15;;
70138;SDS011;57507;43.056;0.150;2023-03-03T20:58:00;20.83;;;13.93;;
70138;SDS011;57507;43.056;0.150;2023-03-03T21:00:38;18.02;;;13.02;;
70138;SDS011;57507;43.056;0.150;2023-03-03T21:05:56;17.98;;;12.63;;
70138;SDS011;57507;43.056;0.150;2023-03-03T21:11:07;23.42;;;17.27;;
70138;SDS011;57507;43.056;0.150;2023-03-03T21:13:34;19.13;;;14.15;;
70138;SDS011;57507;43.056;0.150;2023-03-03T21:16:08;21.15;;;15.13;;
70138;SDS011;57507;43.056;0.150;2023-03-03T21:18:34;25.40;;;16.88;;
70138;SDS011;57507;43.056;0.150;2023-03-03T21:21:01;18.08;;;12.60;;
70138;SDS011;57507;43.056;0.150;2023-03-03T21:23:27;20.77;;;14.35;;
70138;SDS011;57507;43.056;0.150;2023-03-03T21:25:53;16.38;;;11.88;;
70138;SDS011;57507;43.056;0.150;2023-03-03T21:36:06;18.77;;;13.73;;
70138;SDS011;57507;43.056;0.150;2023-03-03T21:38:33;22.73;;;15.25;;
70138;SDS011;57507;43.056;0.150;2023-03-03T21:41:00;17.95;;;13.57;;
70138;SDS011;57507;43.056;0.150;2023-03-03T21:43:36;24.75;;;17.38;;
70138;SDS011;57507;43.056;0.150;2023-03-03T21:46:03;19.15;;;13.88;;
70138;SDS011;57507;43.056;0.150;2023-03-03T21:48:29;18.48;;;13.63;;
70138;SDS011;57507;43.056;0.150;2023-03-03T21:50:55;22.00;;;15.07;;
70138;SDS011;57507;43.056;0.150;2023-03-03T21:53:21;17.25;;;12.02;;
70138;SDS011;57507;43.056;0.150;2023-03-03T21:55:48;19.55;;;13.63;;
70138;SDS011;57507;43.056;0.150;2023-03-03T21:58:15;24.50;;;17.25;;
70138;SDS011;57507;43.056;0.150;2023-03-03T22:00:41;22.42;;;15.82;;
70138;SDS011;57507;43.056;0.150;2023-03-03T22:03:10;24.65;;;16.98;;
70138;SDS011;57507;43.056;0.150;2023-03-03T22:05:37;25.00;;;17.15;;
70138;SDS011;57507;43.056;0.150;2023-03-03T22:08:04;22.70;;;15.77;;